Wangaratta Aerodrome, Australia
Current Conditions -  °F | °C
As of 8:00 AM on Monday 24 Nov 2014 (Local Time) from YMAY Reporting Station
Clear Clear  
Wind Chill: 26°   Ceiling: Unl
Heat Index: 27°   Visibility: 6mi
Dew Point: 15°   Wind: 10mph
Humidity: 51%   Direction: 10°N
Pressure: 29.88"   Gusts: NA
Location:  36.42°S, 146.3°E
Report Text: YMAY 232100Z AUTO 01009KT 010V140 9999 // NCD 26/15 Q1012
Loading
Personal Weather Stations






























Interactive Weather Map New forecast layout! Learn more

10-Day Weather Forecast

Advertisements
Track Severe Weather on mobile